• Join FlightAware (Why Join?)
  • Login
  • US Flag 
09:33PM EDT


 

Airport Tracker/Info


-or-


 

Live Flight TrackerFlight Track Log ✈ BOE521 ✈ 02-Aug-2012 ✈ KMWH - KBFI

Flight Track Log - Related Links

Times and Time Zones

All times are in EDT time to prevent confusion due to time zone crossing. See the BOE521 flight status page for this flight to view local times or setup timezone preferences in your user account.

Time Position Orientation Groundspeed Altitude Reporting Facility
EDT Latitude Longitude Course Direction KTS MPH feet Rate Location/Type
03:12PM 47.2164 -119.3503 296° West 180 207 2,800  Level Seattle Center
03:13PM 47.2522 -119.4569 298° West 255 293 4,900 3,360 Climbing Seattle Center
03:14PM 47.2878 -119.5547 297° West 269 310 9,700 4,560 Climbing Seattle Center
03:15PM 47.3231 -119.6572 298° West 279 321 14,300 4,080 Climbing Seattle Center
03:16PM 47.3606 -119.7628 297° West 288 331 18,100 3,540 Climbing Seattle Center
03:17PM 47.3986 -119.8714 297° West 296 341 21,600 1,260 Climbing Seattle Center
03:19PM 47.4997 -120.1603 296° West 428 493 22,000 120 Climbing Seattle Center
03:20PM 47.5475 -120.3083 290° West 402 463 22,000  Level Seattle Center
03:21PM 47.5833 -120.4575 290° West 388 447 22,000  Level Seattle Center
03:22PM 47.6208 -120.6089 290° West 391 450 22,000  Level Seattle Center
03:23PM 47.6647 -120.7925 291° West 394 453 22,000  Level Seattle Center
03:24PM 47.7008 -120.9347 291° West 394 453 22,000 -60 Level Seattle Center
03:25PM 47.7389 -121.0853 290° West 395 455 21,900 -900 Descending Seattle Center
03:26PM 47.7519 -121.1392 289° West 380 437 20,900 -2,760 Descending Seattle Center
03:27PM 47.7711 -121.2222 292° West 357 411 19,100 -2,880 Descending Seattle Center
03:27PM 47.7847 -121.2728 288° West 346 398 18,000 -2,760 Descending Seattle Center
03:28PM 47.8019 -121.3519 293° West 338 389 16,300 -2,580 Descending Seattle Center
03:28PM 47.8161 -121.4006 288° West 336 387 15,400 -2,700 Descending Seattle Center
03:29PM 47.8381 -121.5019 290° West 328 377 13,600 -2,280 Descending Seattle Center
03:29PM 47.8450 -121.5297 289° West 328 377 13,100 -1,980 Descending Seattle Center
03:30PM 47.8672 -121.6253 265° West 322 371 11,600 -1,500 Descending Seattle Center
03:31PM 47.8606 -121.7361 223° Southwest 297 342 10,500 -1,080 Descending Seattle Center
03:32PM 47.8025 -121.8164 220° Southwest 283 326 9,400 -1,140 Descending Seattle Center
03:33PM 47.7450 -121.8886 194° South 274 315 8,300 -1,560 Descending Seattle Center
03:34PM 47.6703 -121.9169 198° South 274 315 6,300 -1,440 Descending Seattle Center
03:35PM 47.5739 -121.9642 196° South 266 306 5,100 -600 Descending Seattle Center
03:36PM 47.5322 -121.9822 198° South 259 298 5,100 -60 Level Seattle Center
03:37PM 47.4583 -122.0169 198° South 235 270 5,000 -480 Descending Seattle Center
03:38PM 47.3967 -122.0458 196° South 234 269 4,200 -420 Descending Seattle Center
03:39PM 47.3453 -122.0681 241° Southwest 196 226 4,200 -480 Level Seattle Center
03:40PM 47.3267 -122.1175 322° Northwest 175 201 3,300 -720 Descending Seattle Center
03:41PM 47.3731 -122.1711 330° Northwest 163 188 2,700 -300 Descending Seattle Center
03:42PM 47.3986 -122.1928 331° Northwest 154 177 2,700 -300 Level Seattle Center
03:43PM 47.4308 -122.2194 330° Northwest 135 155 2,200 -720 Descending Seattle Center
03:44PM 47.4658 -122.2497 330° Northwest 123 142 1,300 -840 Descending Seattle Center
03:45PM 47.4947 -122.2742 331° Northwest 121 139 600 10,140 Descending Seattle Center
03:46PM 47.5267 -122.3000 331° Northwest 122 140 22,000 21,000 Climbing Seattle Center